sensor_id;sensor_type;location;lat;lon;timestamp;P1;durP1;ratioP1;P2;durP2;ratioP2
16193;SDS011;8204;53.582;10.080;2023-08-08T00:01:49;7.53;;;2.70;;
16193;SDS011;8204;53.582;10.080;2023-08-08T00:04:15;6.40;;;3.87;;
16193;SDS011;8204;53.582;10.080;2023-08-08T00:06:40;5.37;;;3.03;;
16193;SDS011;8204;53.582;10.080;2023-08-08T00:09:07;7.57;;;3.87;;
16193;SDS011;8204;53.582;10.080;2023-08-08T00:11:33;7.50;;;3.43;;
16193;SDS011;8204;53.582;10.080;2023-08-08T00:13:58;4.33;;;3.17;;
16193;SDS011;8204;53.582;10.080;2023-08-08T00:16:24;5.10;;;3.43;;
16193;SDS011;8204;53.582;10.080;2023-08-08T00:18:50;6.47;;;3.83;;
16193;SDS011;8204;53.582;10.080;2023-08-08T00:21:22;6.80;;;3.67;;
16193;SDS011;8204;53.582;10.080;2023-08-08T00:23:48;10.87;;;4.20;;
16193;SDS011;8204;53.582;10.080;2023-08-08T00:26:13;8.33;;;3.60;;
16193;SDS011;8204;53.582;10.080;2023-08-08T00:28:39;4.03;;;3.50;;
16193;SDS011;8204;53.582;10.080;2023-08-08T00:31:04;4.60;;;3.50;;
16193;SDS011;8204;53.582;10.080;2023-08-08T00:33:30;4.47;;;4.07;;
16193;SDS011;8204;53.582;10.080;2023-08-08T00:35:55;8.37;;;3.70;;
16193;SDS011;8204;53.582;10.080;2023-08-08T00:38:21;5.70;;;3.33;;
16193;SDS011;8204;53.582;10.080;2023-08-08T00:40:46;9.77;;;3.80;;
16193;SDS011;8204;53.582;10.080;2023-08-08T00:43:11;7.47;;;4.57;;
16193;SDS011;8204;53.582;10.080;2023-08-08T00:45:37;6.23;;;3.97;;
16193;SDS011;8204;53.582;10.080;2023-08-08T00:48:05;9.63;;;3.70;;
16193;SDS011;8204;53.582;10.080;2023-08-08T00:50:31;6.20;;;4.10;;
16193;SDS011;8204;53.582;10.080;2023-08-08T00:52:56;3.97;;;3.50;;
16193;SDS011;8204;53.582;10.080;2023-08-08T00:55:22;6.50;;;4.23;;
16193;SDS011;8204;53.582;10.080;2023-08-08T00:57:48;4.13;;;3.73;;
16193;SDS011;8204;53.582;10.080;2023-08-08T01:00:13;5.37;;;3.50;;
16193;SDS011;8204;53.582;10.080;2023-08-08T01:02:39;4.67;;;3.47;;
16193;SDS011;8204;53.582;10.080;2023-08-08T01:05:04;4.37;;;3.03;;
16193;SDS011;8204;53.582;10.080;2023-08-08T01:07:41;3.50;;;3.07;;
16193;SDS011;8204;53.582;10.080;2023-08-08T01:10:17;6.17;;;3.67;;
16193;SDS011;8204;53.582;10.080;2023-08-08T01:12:50;6.13;;;3.67;;
16193;SDS011;8204;53.582;10.080;2023-08-08T01:15:19;4.83;;;3.67;;
16193;SDS011;8204;53.582;10.080;2023-08-08T01:17:46;4.20;;;3.80;;
16193;SDS011;8204;53.582;10.080;2023-08-08T01:20:12;10.67;;;3.93;;
16193;SDS011;8204;53.582;10.080;2023-08-08T01:22:55;6.20;;;3.30;;
16193;SDS011;8204;53.582;10.080;2023-08-08T01:25:22;5.30;;;3.60;;
16193;SDS011;8204;53.582;10.080;2023-08-08T01:27:48;6.50;;;4.73;;
16193;SDS011;8204;53.582;10.080;2023-08-08T01:30:13;4.63;;;3.13;;
16193;SDS011;8204;53.582;10.080;2023-08-08T01:32:39;5.20;;;3.10;;
16193;SDS011;8204;53.582;10.080;2023-08-08T01:35:05;3.33;;;3.03;;
16193;SDS011;8204;53.582;10.080;2023-08-08T01:40:17;4.17;;;2.97;;
16193;SDS011;8204;53.582;10.080;2023-08-08T01:42:45;4.23;;;2.73;;
16193;SDS011;8204;53.582;10.080;2023-08-08T01:45:12;6.03;;;4.13;;
16193;SDS011;8204;53.582;10.080;2023-08-08T01:47:39;11.50;;;3.40;;
16193;SDS011;8204;53.582;10.080;2023-08-08T01:50:04;7.97;;;3.60;;
16193;SDS011;8204;53.582;10.080;2023-08-08T01:52:30;3.33;;;2.77;;
16193;SDS011;8204;53.582;10.080;2023-08-08T01:54:56;8.73;;;3.93;;
16193;SDS011;8204;53.582;10.080;2023-08-08T01:57:21;3.40;;;3.10;;
16193;SDS011;8204;53.582;10.080;2023-08-08T01:59:47;3.27;;;2.97;;
16193;SDS011;8204;53.582;10.080;2023-08-08T02:02:13;6.30;;;3.20;;
16193;SDS011;8204;53.582;10.080;2023-08-08T02:04:38;6.00;;;3.23;;
16193;SDS011;8204;53.582;10.080;2023-08-08T02:07:04;3.33;;;2.80;;
16193;SDS011;8204;53.582;10.080;2023-08-08T02:09:29;4.07;;;2.97;;
16193;SDS011;8204;53.582;10.080;2023-08-08T02:11:55;5.30;;;3.00;;
16193;SDS011;8204;53.582;10.080;2023-08-08T02:14:20;4.73;;;2.67;;
16193;SDS011;8204;53.582;10.080;2023-08-08T02:16:46;4.63;;;2.27;;
16193;SDS011;8204;53.582;10.080;2023-08-08T02:19:11;3.77;;;2.73;;
16193;SDS011;8204;53.582;10.080;2023-08-08T02:21:37;3.87;;;2.23;;
16193;SDS011;8204;53.582;10.080;2023-08-08T02:24:03;3.07;;;2.37;;
16193;SDS011;8204;53.582;10.080;2023-08-08T02:26:29;4.20;;;2.37;;
16193;SDS011;8204;53.582;10.080;2023-08-08T02:28:54;4.70;;;2.80;;
16193;SDS011;8204;53.582;10.080;2023-08-08T02:31:19;5.00;;;3.00;;
16193;SDS011;8204;53.582;10.080;2023-08-08T02:33:47;3.47;;;2.80;;
16193;SDS011;8204;53.582;10.080;2023-08-08T02:36:14;3.83;;;2.13;;
16193;SDS011;8204;53.582;10.080;2023-08-08T02:38:39;2.00;;;1.80;;
16193;SDS011;8204;53.582;10.080;2023-08-08T02:41:05;4.07;;;2.73;;
16193;SDS011;8204;53.582;10.080;2023-08-08T02:43:30;4.27;;;2.43;;
16193;SDS011;8204;53.582;10.080;2023-08-08T02:45:55;3.63;;;2.53;;
16193;SDS011;8204;53.582;10.080;2023-08-08T02:48:21;5.70;;;2.20;;
16193;SDS011;8204;53.582;10.080;2023-08-08T02:50:47;5.90;;;2.47;;
16193;SDS011;8204;53.582;10.080;2023-08-08T02:53:12;3.13;;;2.13;;
16193;SDS011;8204;53.582;10.080;2023-08-08T02:55:37;4.83;;;2.67;;
16193;SDS011;8204;53.582;10.080;2023-08-08T02:58:03;4.17;;;2.33;;
16193;SDS011;8204;53.582;10.080;2023-08-08T03:00:28;3.03;;;2.00;;
16193;SDS011;8204;53.582;10.080;2023-08-08T03:02:54;3.07;;;1.93;;
16193;SDS011;8204;53.582;10.080;2023-08-08T03:05:19;2.43;;;2.10;;
16193;SDS011;8204;53.582;10.080;2023-08-08T03:07:45;6.20;;;2.13;;
16193;SDS011;8204;53.582;10.080;2023-08-08T03:10:10;4.50;;;2.87;;
16193;SDS011;8204;53.582;10.080;2023-08-08T03:12:36;2.53;;;2.30;;
16193;SDS011;8204;53.582;10.080;2023-08-08T03:15:03;3.67;;;1.87;;
16193;SDS011;8204;53.582;10.080;2023-08-08T03:17:30;2.80;;;2.27;;
16193;SDS011;8204;53.582;10.080;2023-08-08T03:19:56;2.77;;;2.10;;
16193;SDS011;8204;53.582;10.080;2023-08-08T03:22:21;2.33;;;1.93;;
16193;SDS011;8204;53.582;10.080;2023-08-08T03:24:46;3.83;;;2.07;;
16193;SDS011;8204;53.582;10.080;2023-08-08T03:27:12;5.03;;;2.53;;
16193;SDS011;8204;53.582;10.080;2023-08-08T03:29:37;6.37;;;2.10;;
16193;SDS011;8204;53.582;10.080;2023-08-08T03:32:03;5.60;;;2.23;;
16193;SDS011;8204;53.582;10.080;2023-08-08T03:34:30;3.33;;;2.23;;
16193;SDS011;8204;53.582;10.080;2023-08-08T03:36:55;6.43;;;2.70;;
16193;SDS011;8204;53.582;10.080;2023-08-08T03:39:21;2.70;;;2.30;;
16193;SDS011;8204;53.582;10.080;2023-08-08T03:41:47;4.77;;;2.63;;
16193;SDS011;8204;53.582;10.080;2023-08-08T03:44:12;2.77;;;2.20;;
16193;SDS011;8204;53.582;10.080;2023-08-08T03:46:39;3.53;;;2.20;;
16193;SDS011;8204;53.582;10.080;2023-08-08T03:49:04;2.20;;;1.63;;
16193;SDS011;8204;53.582;10.080;2023-08-08T03:51:29;6.83;;;2.93;;
16193;SDS011;8204;53.582;10.080;2023-08-08T03:53:56;6.40;;;2.40;;
16193;SDS011;8204;53.582;10.080;2023-08-08T03:56:21;7.10;;;2.77;;
16193;SDS011;8204;53.582;10.080;2023-08-08T03:58:47;6.57;;;3.00;;
16193;SDS011;8204;53.582;10.080;2023-08-08T04:01:12;3.67;;;2.60;;
16193;SDS011;8204;53.582;10.080;2023-08-08T04:03:38;5.33;;;3.07;;
16193;SDS011;8204;53.582;10.080;2023-08-08T04:06:03;3.03;;;2.43;;
16193;SDS011;8204;53.582;10.080;2023-08-08T04:08:29;5.87;;;2.97;;
16193;SDS011;8204;53.582;10.080;2023-08-08T04:10:55;2.63;;;2.13;;
16193;SDS011;8204;53.582;10.080;2023-08-08T04:13:20;4.23;;;2.77;;
16193;SDS011;8204;53.582;10.080;2023-08-08T04:15:45;5.70;;;2.93;;
16193;SDS011;8204;53.582;10.080;2023-08-08T04:18:11;2.63;;;2.10;;
16193;SDS011;8204;53.582;10.080;2023-08-08T04:20:37;3.63;;;2.00;;
16193;SDS011;8204;53.582;10.080;2023-08-08T04:23:02;4.30;;;3.10;;
16193;SDS011;8204;53.582;10.080;2023-08-08T04:25:27;3.23;;;2.90;;
16193;SDS011;8204;53.582;10.080;2023-08-08T04:27:53;2.50;;;2.17;;
16193;SDS011;8204;53.582;10.080;2023-08-08T04:30:19;3.07;;;2.73;;
16193;SDS011;8204;53.582;10.080;2023-08-08T04:32:44;3.10;;;2.27;;
16193;SDS011;8204;53.582;10.080;2023-08-08T04:35:10;5.87;;;3.13;;
16193;SDS011;8204;53.582;10.080;2023-08-08T04:37:36;4.83;;;3.00;;
16193;SDS011;8204;53.582;10.080;2023-08-08T04:40:01;3.57;;;2.80;;
16193;SDS011;8204;53.582;10.080;2023-08-08T04:42:27;4.03;;;2.53;;
16193;SDS011;8204;53.582;10.080;2023-08-08T04:44:53;3.30;;;2.60;;
16193;SDS011;8204;53.582;10.080;2023-08-08T04:47:19;5.70;;;2.47;;
16193;SDS011;8204;53.582;10.080;2023-08-08T04:49:44;2.30;;;2.10;;
16193;SDS011;8204;53.582;10.080;2023-08-08T04:52:10;6.50;;;2.87;;
16193;SDS011;8204;53.582;10.080;2023-08-08T04:54:35;2.30;;;2.10;;
16193;SDS011;8204;53.582;10.080;2023-08-08T04:57:00;1.87;;;1.77;;
16193;SDS011;8204;53.582;10.080;2023-08-08T04:59:26;3.23;;;2.13;;
16193;SDS011;8204;53.582;10.080;2023-08-08T05:01:51;3.43;;;2.60;;
16193;SDS011;8204;53.582;10.080;2023-08-08T05:04:17;4.53;;;2.70;;
16193;SDS011;8204;53.582;10.080;2023-08-08T05:06:43;3.97;;;2.00;;
16193;SDS011;8204;53.582;10.080;2023-08-08T05:09:08;5.23;;;2.07;;
16193;SDS011;8204;53.582;10.080;2023-08-08T05:11:34;3.10;;;2.50;;
16193;SDS011;8204;53.582;10.080;2023-08-08T05:14:00;4.53;;;2.47;;
16193;SDS011;8204;53.582;10.080;2023-08-08T05:16:26;4.30;;;2.80;;
16193;SDS011;8204;53.582;10.080;2023-08-08T05:18:51;4.60;;;2.67;;
16193;SDS011;8204;53.582;10.080;2023-08-08T05:21:17;4.83;;;2.47;;
16193;SDS011;8204;53.582;10.080;2023-08-08T05:23:42;2.97;;;1.97;;
16193;SDS011;8204;53.582;10.080;2023-08-08T05:26:08;3.93;;;2.53;;
16193;SDS011;8204;53.582;10.080;2023-08-08T05:28:33;7.03;;;2.80;;
16193;SDS011;8204;53.582;10.080;2023-08-08T05:30:58;3.63;;;2.60;;
16193;SDS011;8204;53.582;10.080;2023-08-08T05:33:24;6.43;;;2.90;;
16193;SDS011;8204;53.582;10.080;2023-08-08T05:35:50;4.57;;;2.60;;
16193;SDS011;8204;53.582;10.080;2023-08-08T05:38:15;3.33;;;2.40;;
16193;SDS011;8204;53.582;10.080;2023-08-08T05:40:41;2.27;;;2.07;;
16193;SDS011;8204;53.582;10.080;2023-08-08T05:43:07;2.90;;;2.20;;
16193;SDS011;8204;53.582;10.080;2023-08-08T05:45:34;1.83;;;1.73;;
16193;SDS011;8204;53.582;10.080;2023-08-08T05:48:00;3.20;;;2.03;;
16193;SDS011;8204;53.582;10.080;2023-08-08T05:50:26;3.00;;;2.23;;
16193;SDS011;8204;53.582;10.080;2023-08-08T05:52:53;3.37;;;2.67;;
16193;SDS011;8204;53.582;10.080;2023-08-08T05:55:19;2.40;;;2.00;;
16193;SDS011;8204;53.582;10.080;2023-08-08T05:57:44;5.50;;;2.50;;
16193;SDS011;8204;53.582;10.080;2023-08-08T06:00:09;7.33;;;2.53;;
16193;SDS011;8204;53.582;10.080;2023-08-08T06:02:36;5.07;;;2.63;;
16193;SDS011;8204;53.582;10.080;2023-08-08T06:05:02;2.10;;;1.90;;
16193;SDS011;8204;53.582;10.080;2023-08-08T06:07:28;4.23;;;2.33;;
16193;SDS011;8204;53.582;10.080;2023-08-08T06:09:54;3.93;;;2.53;;
16193;SDS011;8204;53.582;10.080;2023-08-08T06:12:20;6.63;;;2.30;;
16193;SDS011;8204;53.582;10.080;2023-08-08T06:14:45;2.80;;;2.03;;
16193;SDS011;8204;53.582;10.080;2023-08-08T06:17:12;3.70;;;3.00;;
16193;SDS011;8204;53.582;10.080;2023-08-08T06:19:37;5.07;;;2.93;;
16193;SDS011;8204;53.582;10.080;2023-08-08T06:22:03;2.50;;;2.30;;
16193;SDS011;8204;53.582;10.080;2023-08-08T06:24:28;3.53;;;2.53;;
16193;SDS011;8204;53.582;10.080;2023-08-08T06:26:54;7.37;;;2.77;;
16193;SDS011;8204;53.582;10.080;2023-08-08T06:29:20;3.90;;;2.73;;
16193;SDS011;8204;53.582;10.080;2023-08-08T06:31:45;3.13;;;2.63;;
16193;SDS011;8204;53.582;10.080;2023-08-08T06:34:10;2.93;;;2.50;;
16193;SDS011;8204;53.582;10.080;2023-08-08T06:36:36;6.23;;;2.80;;
16193;SDS011;8204;53.582;10.080;2023-08-08T06:39:02;4.03;;;2.60;;
16193;SDS011;8204;53.582;10.080;2023-08-08T06:41:27;3.17;;;2.60;;
16193;SDS011;8204;53.582;10.080;2023-08-08T06:43:53;5.37;;;3.10;;
16193;SDS011;8204;53.582;10.080;2023-08-08T06:46:19;3.93;;;3.00;;
16193;SDS011;8204;53.582;10.080;2023-08-08T06:48:46;2.30;;;2.07;;
16193;SDS011;8204;53.582;10.080;2023-08-08T06:51:11;4.33;;;3.00;;
16193;SDS011;8204;53.582;10.080;2023-08-08T06:53:37;3.77;;;2.50;;
16193;SDS011;8204;53.582;10.080;2023-08-08T06:56:02;2.33;;;1.93;;
16193;SDS011;8204;53.582;10.080;2023-08-08T06:58:28;6.07;;;2.70;;
16193;SDS011;8204;53.582;10.080;2023-08-08T07:00:54;7.10;;;2.97;;
16193;SDS011;8204;53.582;10.080;2023-08-08T07:03:20;4.40;;;2.83;;
16193;SDS011;8204;53.582;10.080;2023-08-08T07:05:46;3.67;;;2.27;;
16193;SDS011;8204;53.582;10.080;2023-08-08T07:08:12;2.80;;;2.07;;
16193;SDS011;8204;53.582;10.080;2023-08-08T07:10:38;3.90;;;2.43;;
16193;SDS011;8204;53.582;10.080;2023-08-08T07:13:04;3.70;;;2.97;;
16193;SDS011;8204;53.582;10.080;2023-08-08T07:15:29;3.53;;;2.80;;
16193;SDS011;8204;53.582;10.080;2023-08-08T07:17:56;2.33;;;1.90;;
16193;SDS011;8204;53.582;10.080;2023-08-08T07:20:21;4.60;;;2.37;;
16193;SDS011;8204;53.582;10.080;2023-08-08T07:22:47;3.17;;;2.00;;
16193;SDS011;8204;53.582;10.080;2023-08-08T07:25:13;3.67;;;2.30;;
16193;SDS011;8204;53.582;10.080;2023-08-08T07:27:38;3.87;;;2.20;;
16193;SDS011;8204;53.582;10.080;2023-08-08T07:30:04;3.07;;;2.13;;
16193;SDS011;8204;53.582;10.080;2023-08-08T07:32:32;2.83;;;2.37;;
16193;SDS011;8204;53.582;10.080;2023-08-08T07:34:57;3.70;;;2.23;;
16193;SDS011;8204;53.582;10.080;2023-08-08T07:37:22;2.27;;;2.07;;
16193;SDS011;8204;53.582;10.080;2023-08-08T07:39:50;2.70;;;1.83;;
16193;SDS011;8204;53.582;10.080;2023-08-08T07:42:16;5.37;;;2.27;;
16193;SDS011;8204;53.582;10.080;2023-08-08T07:44:42;6.73;;;2.63;;
16193;SDS011;8204;53.582;10.080;2023-08-08T07:47:07;3.13;;;2.27;;
16193;SDS011;8204;53.582;10.080;2023-08-08T07:49:32;3.03;;;2.27;;
16193;SDS011;8204;53.582;10.080;2023-08-08T07:51:58;2.90;;;2.70;;
16193;SDS011;8204;53.582;10.080;2023-08-08T07:54:24;5.77;;;2.00;;
16193;SDS011;8204;53.582;10.080;2023-08-08T07:56:49;3.23;;;2.30;;
16193;SDS011;8204;53.582;10.080;2023-08-08T07:59:14;5.50;;;2.43;;
16193;SDS011;8204;53.582;10.080;2023-08-08T08:01:41;3.53;;;2.53;;
16193;SDS011;8204;53.582;10.080;2023-08-08T08:04:06;4.77;;;3.20;;
16193;SDS011;8204;53.582;10.080;2023-08-08T08:06:32;7.87;;;3.33;;
16193;SDS011;8204;53.582;10.080;2023-08-08T08:08:57;4.60;;;2.90;;
16193;SDS011;8204;53.582;10.080;2023-08-08T08:11:23;3.23;;;2.97;;
16193;SDS011;8204;53.582;10.080;2023-08-08T08:13:48;6.37;;;3.20;;
16193;SDS011;8204;53.582;10.080;2023-08-08T08:16:14;6.50;;;3.20;;
16193;SDS011;8204;53.582;10.080;2023-08-08T08:18:39;7.20;;;2.47;;
16193;SDS011;8204;53.582;10.080;2023-08-08T08:21:05;4.80;;;3.30;;
16193;SDS011;8204;53.582;10.080;2023-08-08T08:23:30;3.13;;;2.23;;
16193;SDS011;8204;53.582;10.080;2023-08-08T08:25:57;3.60;;;2.97;;
16193;SDS011;8204;53.582;10.080;2023-08-08T08:28:22;5.03;;;2.67;;
16193;SDS011;8204;53.582;10.080;2023-08-08T08:30:48;2.23;;;2.10;;
16193;SDS011;8204;53.582;10.080;2023-08-08T08:33:14;4.90;;;2.10;;
16193;SDS011;8204;53.582;10.080;2023-08-08T08:35:40;4.90;;;2.40;;
16193;SDS011;8204;53.582;10.080;2023-08-08T08:38:06;6.57;;;2.37;;
16193;SDS011;8204;53.582;10.080;2023-08-08T08:40:36;4.67;;;2.70;;
16193;SDS011;8204;53.582;10.080;2023-08-08T08:43:05;3.37;;;2.67;;
16193;SDS011;8204;53.582;10.080;2023-08-08T08:45:33;3.77;;;2.40;;
16193;SDS011;8204;53.582;10.080;2023-08-08T08:48:03;3.67;;;2.37;;
16193;SDS011;8204;53.582;10.080;2023-08-08T08:50:28;4.77;;;2.23;;
16193;SDS011;8204;53.582;10.080;2023-08-08T08:52:58;2.90;;;1.93;;
16193;SDS011;8204;53.582;10.080;2023-08-08T08:55:24;5.13;;;2.10;;
16193;SDS011;8204;53.582;10.080;2023-08-08T08:57:50;2.80;;;1.93;;
16193;SDS011;8204;53.582;10.080;2023-08-08T09:00:16;3.43;;;1.97;;
16193;SDS011;8204;53.582;10.080;2023-08-08T09:02:42;2.37;;;1.60;;
16193;SDS011;8204;53.582;10.080;2023-08-08T09:05:08;1.90;;;1.73;;
16193;SDS011;8204;53.582;10.080;2023-08-08T09:07:36;2.87;;;1.60;;
16193;SDS011;8204;53.582;10.080;2023-08-08T09:10:03;7.67;;;1.80;;
16193;SDS011;8204;53.582;10.080;2023-08-08T09:12:29;8.83;;;2.43;;
16193;SDS011;8204;53.582;10.080;2023-08-08T09:14:57;1.67;;;1.30;;
16193;SDS011;8204;53.582;10.080;2023-08-08T09:17:26;4.33;;;1.73;;
16193;SDS011;8204;53.582;10.080;2023-08-08T09:19:53;3.23;;;1.57;;
16193;SDS011;8204;53.582;10.080;2023-08-08T09:22:20;2.33;;;1.37;;
16193;SDS011;8204;53.582;10.080;2023-08-08T09:24:46;1.33;;;1.23;;
16193;SDS011;8204;53.582;10.080;2023-08-08T09:27:12;1.77;;;1.63;;
16193;SDS011;8204;53.582;10.080;2023-08-08T09:29:39;2.13;;;1.50;;
16193;SDS011;8204;53.582;10.080;2023-08-08T09:32:07;3.00;;;1.70;;
16193;SDS011;8204;53.582;10.080;2023-08-08T09:34:34;2.70;;;1.83;;
16193;SDS011;8204;53.582;10.080;2023-08-08T09:37:00;2.40;;;1.60;;
16193;SDS011;8204;53.582;10.080;2023-08-08T09:39:26;1.87;;;1.27;;
16193;SDS011;8204;53.582;10.080;2023-08-08T09:41:55;3.10;;;1.73;;
16193;SDS011;8204;53.582;10.080;2023-08-08T09:44:24;2.90;;;2.17;;
16193;SDS011;8204;53.582;10.080;2023-08-08T09:46:52;2.33;;;1.50;;
16193;SDS011;8204;53.582;10.080;2023-08-08T09:49:18;2.57;;;1.53;;
16193;SDS011;8204;53.582;10.080;2023-08-08T09:51:44;3.73;;;1.40;;
16193;SDS011;8204;53.582;10.080;2023-08-08T09:54:10;3.40;;;1.30;;
16193;SDS011;8204;53.582;10.080;2023-08-08T09:56:37;5.57;;;1.70;;
16193;SDS011;8204;53.582;10.080;2023-08-08T09:59:04;3.10;;;1.63;;
16193;SDS011;8204;53.582;10.080;2023-08-08T10:01:31;3.60;;;1.70;;
16193;SDS011;8204;53.582;10.080;2023-08-08T10:03:56;4.30;;;1.63;;
16193;SDS011;8204;53.582;10.080;2023-08-08T10:06:22;3.70;;;1.43;;
16193;SDS011;8204;53.582;10.080;2023-08-08T10:08:48;2.03;;;1.83;;
16193;SDS011;8204;53.582;10.080;2023-08-08T10:11:14;3.30;;;1.67;;
16193;SDS011;8204;53.582;10.080;2023-08-08T10:13:47;5.00;;;2.53;;
16193;SDS011;8204;53.582;10.080;2023-08-08T10:16:15;6.00;;;3.00;;
16193;SDS011;8204;53.582;10.080;2023-08-08T10:18:41;2.17;;;1.20;;
16193;SDS011;8204;53.582;10.080;2023-08-08T10:21:06;3.53;;;2.30;;
16193;SDS011;8204;53.582;10.080;2023-08-08T10:23:38;2.30;;;2.03;;
16193;SDS011;8204;53.582;10.080;2023-08-08T10:26:05;2.00;;;1.83;;
16193;SDS011;8204;53.582;10.080;2023-08-08T10:28:51;3.10;;;1.73;;
16193;SDS011;8204;53.582;10.080;2023-08-08T10:31:21;2.27;;;1.83;;
16193;SDS011;8204;53.582;10.080;2023-08-08T10:33:48;2.27;;;1.63;;
16193;SDS011;8204;53.582;10.080;2023-08-08T10:36:13;2.27;;;2.07;;
16193;SDS011;8204;53.582;10.080;2023-08-08T10:41:12;3.07;;;2.23;;
16193;SDS011;8204;53.582;10.080;2023-08-08T10:43:52;3.67;;;2.17;;
16193;SDS011;8204;53.582;10.080;2023-08-08T10:48:53;5.43;;;2.10;;
16193;SDS011;8204;53.582;10.080;2023-08-08T10:51:37;4.60;;;2.33;;
16193;SDS011;8204;53.582;10.080;2023-08-08T10:54:07;5.63;;;2.13;;
16193;SDS011;8204;53.582;10.080;2023-08-08T10:56:37;5.00;;;2.53;;
16193;SDS011;8204;53.582;10.080;2023-08-08T10:59:12;5.43;;;2.43;;
16193;SDS011;8204;53.582;10.080;2023-08-08T11:01:39;3.73;;;2.13;;
16193;SDS011;8204;53.582;10.080;2023-08-08T11:04:05;5.13;;;2.20;;
16193;SDS011;8204;53.582;10.080;2023-08-08T11:06:31;3.13;;;1.97;;
16193;SDS011;8204;53.582;10.080;2023-08-08T11:08:57;4.00;;;1.83;;
16193;SDS011;8204;53.582;10.080;2023-08-08T11:11:23;5.50;;;2.80;;
16193;SDS011;8204;53.582;10.080;2023-08-08T11:13:51;3.10;;;1.80;;
16193;SDS011;8204;53.582;10.080;2023-08-08T11:16:16;3.03;;;1.90;;
16193;SDS011;8204;53.582;10.080;2023-08-08T11:18:42;6.03;;;2.17;;
16193;SDS011;8204;53.582;10.080;2023-08-08T11:21:11;2.23;;;2.03;;
16193;SDS011;8204;53.582;10.080;2023-08-08T11:23:37;3.83;;;1.97;;
16193;SDS011;8204;53.582;10.080;2023-08-08T11:26:04;2.13;;;1.40;;
16193;SDS011;8204;53.582;10.080;2023-08-08T11:28:30;2.00;;;1.60;;
16193;SDS011;8204;53.582;10.080;2023-08-08T11:30:55;8.43;;;1.97;;
16193;SDS011;8204;53.582;10.080;2023-08-08T11:33:22;5.10;;;2.03;;
16193;SDS011;8204;53.582;10.080;2023-08-08T11:35:47;1.93;;;1.40;;
16193;SDS011;8204;53.582;10.080;2023-08-08T11:38:14;3.53;;;2.67;;
16193;SDS011;8204;53.582;10.080;2023-08-08T11:40:41;4.20;;;2.37;;
16193;SDS011;8204;53.582;10.080;2023-08-08T11:43:07;2.53;;;1.80;;
16193;SDS011;8204;53.582;10.080;2023-08-08T11:45:34;3.43;;;1.97;;
16193;SDS011;8204;53.582;10.080;2023-08-08T11:48:00;2.83;;;1.80;;
16193;SDS011;8204;53.582;10.080;2023-08-08T11:50:27;1.90;;;1.40;;
16193;SDS011;8204;53.582;10.080;2023-08-08T11:52:53;4.90;;;1.93;;
16193;SDS011;8204;53.582;10.080;2023-08-08T11:55:21;3.97;;;1.80;;
16193;SDS011;8204;53.582;10.080;2023-08-08T11:57:53;2.47;;;1.73;;
16193;SDS011;8204;53.582;10.080;2023-08-08T12:00:21;2.53;;;1.90;;
16193;SDS011;8204;53.582;10.080;2023-08-08T12:02:52;3.40;;;2.53;;
16193;SDS011;8204;53.582;10.080;2023-08-08T12:05:20;6.33;;;2.27;;
16193;SDS011;8204;53.582;10.080;2023-08-08T12:07:48;11.17;;;3.00;;
16193;SDS011;8204;53.582;10.080;2023-08-08T12:10:15;3.33;;;2.03;;
16193;SDS011;8204;53.582;10.080;2023-08-08T12:12:43;2.50;;;2.00;;
16193;SDS011;8204;53.582;10.080;2023-08-08T12:15:10;6.87;;;2.67;;
16193;SDS011;8204;53.582;10.080;2023-08-08T12:17:36;3.00;;;1.57;;
16193;SDS011;8204;53.582;10.080;2023-08-08T12:20:06;2.63;;;1.93;;
16193;SDS011;8204;53.582;10.080;2023-08-08T12:22:33;3.63;;;1.97;;
16193;SDS011;8204;53.582;10.080;2023-08-08T12:24:59;4.60;;;2.50;;
16193;SDS011;8204;53.582;10.080;2023-08-08T12:27:25;6.30;;;2.50;;
16193;SDS011;8204;53.582;10.080;2023-08-08T12:29:50;6.63;;;2.23;;
16193;SDS011;8204;53.582;10.080;2023-08-08T12:32:19;2.83;;;2.60;;
16193;SDS011;8204;53.582;10.080;2023-08-08T12:34:45;7.10;;;2.33;;
16193;SDS011;8204;53.582;10.080;2023-08-08T12:37:10;5.17;;;2.20;;
16193;SDS011;8204;53.582;10.080;2023-08-08T12:39:37;5.63;;;2.20;;
16193;SDS011;8204;53.582;10.080;2023-08-08T12:42:03;3.30;;;1.83;;
16193;SDS011;8204;53.582;10.080;2023-08-08T12:44:29;4.47;;;2.33;;
16193;SDS011;8204;53.582;10.080;2023-08-08T12:46:54;5.37;;;2.60;;
16193;SDS011;8204;53.582;10.080;2023-08-08T12:49:20;3.00;;;2.60;;
16193;SDS011;8204;53.582;10.080;2023-08-08T12:51:45;7.23;;;2.27;;
16193;SDS011;8204;53.582;10.080;2023-08-08T12:54:11;3.50;;;1.70;;
16193;SDS011;8204;53.582;10.080;2023-08-08T12:56:36;3.13;;;2.17;;
16193;SDS011;8204;53.582;10.080;2023-08-08T12:59:02;3.27;;;1.60;;
16193;SDS011;8204;53.582;10.080;2023-08-08T13:01:28;4.20;;;2.00;;
16193;SDS011;8204;53.582;10.080;2023-08-08T13:03:54;3.67;;;2.20;;
16193;SDS011;8204;53.582;10.080;2023-08-08T13:06:20;2.30;;;2.10;;
16193;SDS011;8204;53.582;10.080;2023-08-08T13:08:45;8.30;;;3.07;;
16193;SDS011;8204;53.582;10.080;2023-08-08T13:11:10;8.17;;;2.30;;
16193;SDS011;8204;53.582;10.080;2023-08-08T13:13:36;9.03;;;4.17;;
16193;SDS011;8204;53.582;10.080;2023-08-08T13:16:02;7.30;;;2.53;;
16193;SDS011;8204;53.582;10.080;2023-08-08T13:18:28;5.23;;;2.47;;
16193;SDS011;8204;53.582;10.080;2023-08-08T13:20:54;5.67;;;2.60;;
16193;SDS011;8204;53.582;10.080;2023-08-08T13:23:19;5.00;;;2.67;;
16193;SDS011;8204;53.582;10.080;2023-08-08T13:25:45;11.40;;;3.60;;
16193;SDS011;8204;53.582;10.080;2023-08-08T13:28:10;6.87;;;3.50;;
16193;SDS011;8204;53.582;10.080;2023-08-08T13:30:36;5.77;;;3.57;;
16193;SDS011;8204;53.582;10.080;2023-08-08T13:33:02;7.33;;;4.20;;
16193;SDS011;8204;53.582;10.080;2023-08-08T13:35:28;5.33;;;3.47;;
16193;SDS011;8204;53.582;10.080;2023-08-08T13:37:55;7.53;;;2.87;;
16193;SDS011;8204;53.582;10.080;2023-08-08T13:40:20;6.63;;;3.67;;
16193;SDS011;8204;53.582;10.080;2023-08-08T13:42:46;7.17;;;3.90;;
16193;SDS011;8204;53.582;10.080;2023-08-08T13:45:13;8.67;;;4.13;;
16193;SDS011;8204;53.582;10.080;2023-08-08T13:47:40;3.87;;;3.47;;
16193;SDS011;8204;53.582;10.080;2023-08-08T13:50:06;12.43;;;3.57;;
16193;SDS011;8204;53.582;10.080;2023-08-08T13:52:32;8.73;;;2.77;;
16193;SDS011;8204;53.582;10.080;2023-08-08T13:54:58;5.70;;;3.20;;
16193;SDS011;8204;53.582;10.080;2023-08-08T13:57:24;8.87;;;3.50;;
16193;SDS011;8204;53.582;10.080;2023-08-08T13:59:50;6.17;;;2.93;;
16193;SDS011;8204;53.582;10.080;2023-08-08T14:02:15;5.87;;;2.40;;
16193;SDS011;8204;53.582;10.080;2023-08-08T14:04:44;6.33;;;2.80;;
16193;SDS011;8204;53.582;10.080;2023-08-08T14:07:10;5.03;;;1.97;;
16193;SDS011;8204;53.582;10.080;2023-08-08T14:09:36;4.47;;;2.27;;
16193;SDS011;8204;53.582;10.080;2023-08-08T14:12:02;3.07;;;2.43;;
16193;SDS011;8204;53.582;10.080;2023-08-08T14:14:28;5.50;;;2.80;;
16193;SDS011;8204;53.582;10.080;2023-08-08T14:16:54;7.03;;;3.30;;
16193;SDS011;8204;53.582;10.080;2023-08-08T14:19:19;4.50;;;2.37;;
16193;SDS011;8204;53.582;10.080;2023-08-08T14:21:45;2.43;;;2.00;;
16193;SDS011;8204;53.582;10.080;2023-08-08T14:24:10;5.27;;;2.83;;
16193;SDS011;8204;53.582;10.080;2023-08-08T14:26:36;3.63;;;2.30;;
16193;SDS011;8204;53.582;10.080;2023-08-08T14:29:02;4.10;;;2.23;;
16193;SDS011;8204;53.582;10.080;2023-08-08T14:31:27;3.77;;;2.50;;
16193;SDS011;8204;53.582;10.080;2023-08-08T14:33:53;8.17;;;3.10;;
16193;SDS011;8204;53.582;10.080;2023-08-08T14:36:18;11.50;;;3.27;;
16193;SDS011;8204;53.582;10.080;2023-08-08T14:38:44;5.97;;;2.47;;
16193;SDS011;8204;53.582;10.080;2023-08-08T14:41:10;7.73;;;2.90;;
16193;SDS011;8204;53.582;10.080;2023-08-08T14:43:36;5.27;;;3.13;;
16193;SDS011;8204;53.582;10.080;2023-08-08T14:46:02;8.87;;;2.93;;
16193;SDS011;8204;53.582;10.080;2023-08-08T14:48:27;8.37;;;3.07;;
16193;SDS011;8204;53.582;10.080;2023-08-08T14:50:53;6.83;;;3.17;;